sensor_id;sensor_type;location;lat;lon;timestamp;P1;durP1;ratioP1;P2;durP2;ratioP2
4837;SDS011;2433;48.768;9.154;2023-04-06T00:00:31;8.85;;;5.88;;
4837;SDS011;2433;48.768;9.154;2023-04-06T00:02:57;9.90;;;7.47;;
4837;SDS011;2433;48.768;9.154;2023-04-06T00:05:22;9.40;;;6.70;;
4837;SDS011;2433;48.768;9.154;2023-04-06T00:07:48;8.13;;;5.83;;
4837;SDS011;2433;48.768;9.154;2023-04-06T00:10:15;8.82;;;5.38;;
4837;SDS011;2433;48.768;9.154;2023-04-06T00:12:41;6.47;;;5.78;;
4837;SDS011;2433;48.768;9.154;2023-04-06T00:15:07;9.63;;;6.20;;
4837;SDS011;2433;48.768;9.154;2023-04-06T00:17:33;7.90;;;6.03;;
4837;SDS011;2433;48.768;9.154;2023-04-06T00:19:58;9.27;;;5.47;;
4837;SDS011;2433;48.768;9.154;2023-04-06T00:22:24;7.83;;;6.07;;
4837;SDS011;2433;48.768;9.154;2023-04-06T00:24:50;8.10;;;6.20;;
4837;SDS011;2433;48.768;9.154;2023-04-06T00:27:15;6.37;;;4.53;;
4837;SDS011;2433;48.768;9.154;2023-04-06T00:29:41;7.67;;;5.63;;
4837;SDS011;2433;48.768;9.154;2023-04-06T00:32:07;7.23;;;5.30;;
4837;SDS011;2433;48.768;9.154;2023-04-06T00:34:33;8.77;;;5.60;;
4837;SDS011;2433;48.768;9.154;2023-04-06T00:36:58;9.30;;;6.90;;
4837;SDS011;2433;48.768;9.154;2023-04-06T00:39:24;7.47;;;6.37;;
4837;SDS011;2433;48.768;9.154;2023-04-06T00:41:51;6.67;;;5.83;;
4837;SDS011;2433;48.768;9.154;2023-04-06T00:44:17;7.03;;;5.70;;
4837;SDS011;2433;48.768;9.154;2023-04-06T00:46:43;8.15;;;5.93;;
4837;SDS011;2433;48.768;9.154;2023-04-06T00:49:09;8.50;;;7.63;;
4837;SDS011;2433;48.768;9.154;2023-04-06T00:51:35;8.37;;;6.47;;
4837;SDS011;2433;48.768;9.154;2023-04-06T00:54:01;10.55;;;6.32;;
4837;SDS011;2433;48.768;9.154;2023-04-06T00:56:30;7.55;;;6.00;;
4837;SDS011;2433;48.768;9.154;2023-04-06T00:58:56;8.38;;;7.20;;
4837;SDS011;2433;48.768;9.154;2023-04-06T01:01:22;8.63;;;7.30;;
4837;SDS011;2433;48.768;9.154;2023-04-06T01:03:51;10.65;;;7.40;;
4837;SDS011;2433;48.768;9.154;2023-04-06T01:06:18;10.82;;;6.95;;
4837;SDS011;2433;48.768;9.154;2023-04-06T01:08:51;8.43;;;6.88;;
4837;SDS011;2433;48.768;9.154;2023-04-06T01:11:20;9.13;;;6.95;;
4837;SDS011;2433;48.768;9.154;2023-04-06T01:13:47;7.03;;;5.97;;
4837;SDS011;2433;48.768;9.154;2023-04-06T01:16:22;8.07;;;5.85;;
4837;SDS011;2433;48.768;9.154;2023-04-06T01:19:00;8.48;;;6.63;;
4837;SDS011;2433;48.768;9.154;2023-04-06T01:21:29;7.53;;;6.82;;
4837;SDS011;2433;48.768;9.154;2023-04-06T01:24:17;6.60;;;5.63;;
4837;SDS011;2433;48.768;9.154;2023-04-06T01:27:02;10.23;;;6.30;;
4837;SDS011;2433;48.768;9.154;2023-04-06T01:29:38;7.78;;;6.10;;
4837;SDS011;2433;48.768;9.154;2023-04-06T01:32:12;9.88;;;6.97;;
4837;SDS011;2433;48.768;9.154;2023-04-06T01:34:45;7.20;;;6.18;;
4837;SDS011;2433;48.768;9.154;2023-04-06T01:37:11;7.40;;;6.37;;
4837;SDS011;2433;48.768;9.154;2023-04-06T01:39:37;7.97;;;6.57;;
4837;SDS011;2433;48.768;9.154;2023-04-06T01:42:05;7.32;;;6.55;;
4837;SDS011;2433;48.768;9.154;2023-04-06T01:44:33;10.40;;;6.90;;
4837;SDS011;2433;48.768;9.154;2023-04-06T01:47:12;7.93;;;5.72;;
4837;SDS011;2433;48.768;9.154;2023-04-06T01:49:38;6.85;;;5.53;;
4837;SDS011;2433;48.768;9.154;2023-04-06T01:52:04;6.13;;;5.10;;
4837;SDS011;2433;48.768;9.154;2023-04-06T01:54:30;8.50;;;6.20;;
4837;SDS011;2433;48.768;9.154;2023-04-06T01:57:10;9.20;;;6.50;;
4837;SDS011;2433;48.768;9.154;2023-04-06T02:00:02;7.18;;;6.40;;
4837;SDS011;2433;48.768;9.154;2023-04-06T02:02:38;11.20;;;6.10;;
4837;SDS011;2433;48.768;9.154;2023-04-06T02:05:09;8.98;;;6.65;;
4837;SDS011;2433;48.768;9.154;2023-04-06T02:07:36;7.28;;;6.47;;
4837;SDS011;2433;48.768;9.154;2023-04-06T02:10:02;9.65;;;7.15;;
4837;SDS011;2433;48.768;9.154;2023-04-06T02:12:35;8.05;;;6.60;;
4837;SDS011;2433;48.768;9.154;2023-04-06T02:15:01;7.00;;;6.05;;
4837;SDS011;2433;48.768;9.154;2023-04-06T02:17:26;9.27;;;6.53;;
4837;SDS011;2433;48.768;9.154;2023-04-06T02:19:52;8.13;;;5.57;;
4837;SDS011;2433;48.768;9.154;2023-04-06T02:22:18;7.40;;;6.13;;
4837;SDS011;2433;48.768;9.154;2023-04-06T02:24:43;6.90;;;5.80;;
4837;SDS011;2433;48.768;9.154;2023-04-06T02:27:09;9.03;;;6.17;;
4837;SDS011;2433;48.768;9.154;2023-04-06T02:29:35;8.70;;;6.47;;
4837;SDS011;2433;48.768;9.154;2023-04-06T02:32:02;7.10;;;6.32;;
4837;SDS011;2433;48.768;9.154;2023-04-06T02:34:31;8.20;;;6.20;;
4837;SDS011;2433;48.768;9.154;2023-04-06T02:36:56;7.30;;;6.10;;
4837;SDS011;2433;48.768;9.154;2023-04-06T02:39:22;7.97;;;5.83;;
4837;SDS011;2433;48.768;9.154;2023-04-06T02:41:48;7.65;;;6.28;;
4837;SDS011;2433;48.768;9.154;2023-04-06T02:44:19;8.63;;;5.95;;
4837;SDS011;2433;48.768;9.154;2023-04-06T02:46:44;8.90;;;6.50;;
4837;SDS011;2433;48.768;9.154;2023-04-06T02:49:10;9.10;;;6.80;;
4837;SDS011;2433;48.768;9.154;2023-04-06T02:51:36;9.17;;;7.00;;
4837;SDS011;2433;48.768;9.154;2023-04-06T02:54:16;9.45;;;5.88;;
4837;SDS011;2433;48.768;9.154;2023-04-06T02:56:41;7.90;;;6.20;;
4837;SDS011;2433;48.768;9.154;2023-04-06T02:59:08;9.32;;;7.10;;
4837;SDS011;2433;48.768;9.154;2023-04-06T03:01:34;7.13;;;6.53;;
4837;SDS011;2433;48.768;9.154;2023-04-06T03:04:03;7.75;;;6.40;;
4837;SDS011;2433;48.768;9.154;2023-04-06T03:06:29;10.88;;;6.43;;
4837;SDS011;2433;48.768;9.154;2023-04-06T03:09:00;10.20;;;6.90;;
4837;SDS011;2433;48.768;9.154;2023-04-06T03:11:26;10.50;;;6.77;;
4837;SDS011;2433;48.768;9.154;2023-04-06T03:13:52;10.80;;;6.50;;
4837;SDS011;2433;48.768;9.154;2023-04-06T03:16:18;8.97;;;5.63;;
4837;SDS011;2433;48.768;9.154;2023-04-06T03:18:44;7.60;;;6.00;;
4837;SDS011;2433;48.768;9.154;2023-04-06T03:21:13;8.25;;;6.45;;
4837;SDS011;2433;48.768;9.154;2023-04-06T03:23:47;10.82;;;6.55;;
4837;SDS011;2433;48.768;9.154;2023-04-06T03:26:16;9.90;;;6.82;;
4837;SDS011;2433;48.768;9.154;2023-04-06T03:28:42;8.20;;;6.20;;
4837;SDS011;2433;48.768;9.154;2023-04-06T03:31:08;11.13;;;7.40;;
4837;SDS011;2433;48.768;9.154;2023-04-06T03:33:54;9.48;;;6.63;;
4837;SDS011;2433;48.768;9.154;2023-04-06T03:36:24;9.07;;;7.05;;
4837;SDS011;2433;48.768;9.154;2023-04-06T03:38:53;9.48;;;7.05;;
4837;SDS011;2433;48.768;9.154;2023-04-06T03:41:19;9.80;;;6.50;;
4837;SDS011;2433;48.768;9.154;2023-04-06T03:43:55;9.23;;;6.90;;
4837;SDS011;2433;48.768;9.154;2023-04-06T03:46:21;8.40;;;6.87;;
4837;SDS011;2433;48.768;9.154;2023-04-06T03:48:50;10.15;;;6.43;;
4837;SDS011;2433;48.768;9.154;2023-04-06T03:51:17;12.57;;;7.57;;
4837;SDS011;2433;48.768;9.154;2023-04-06T03:53:43;10.80;;;6.93;;
4837;SDS011;2433;48.768;9.154;2023-04-06T03:56:10;9.05;;;6.45;;
4837;SDS011;2433;48.768;9.154;2023-04-06T03:58:35;7.00;;;5.73;;
4837;SDS011;2433;48.768;9.154;2023-04-06T04:01:01;8.20;;;7.27;;
4837;SDS011;2433;48.768;9.154;2023-04-06T04:03:28;8.95;;;6.45;;
4837;SDS011;2433;48.768;9.154;2023-04-06T04:05:53;10.50;;;6.90;;
4837;SDS011;2433;48.768;9.154;2023-04-06T04:08:24;12.18;;;7.13;;
4837;SDS011;2433;48.768;9.154;2023-04-06T04:10:50;7.70;;;6.40;;
4837;SDS011;2433;48.768;9.154;2023-04-06T04:13:15;6.90;;;6.07;;
4837;SDS011;2433;48.768;9.154;2023-04-06T04:15:45;9.02;;;6.20;;
4837;SDS011;2433;48.768;9.154;2023-04-06T04:18:13;10.40;;;7.03;;
4837;SDS011;2433;48.768;9.154;2023-04-06T04:20:39;8.20;;;6.88;;
4837;SDS011;2433;48.768;9.154;2023-04-06T04:23:05;8.00;;;6.60;;
4837;SDS011;2433;48.768;9.154;2023-04-06T04:25:32;9.75;;;6.85;;
4837;SDS011;2433;48.768;9.154;2023-04-06T04:27:58;9.77;;;6.83;;
4837;SDS011;2433;48.768;9.154;2023-04-06T04:30:23;8.03;;;7.00;;
4837;SDS011;2433;48.768;9.154;2023-04-06T04:32:49;10.33;;;6.90;;
4837;SDS011;2433;48.768;9.154;2023-04-06T04:35:18;8.73;;;6.30;;
4837;SDS011;2433;48.768;9.154;2023-04-06T04:37:44;12.03;;;7.23;;
4837;SDS011;2433;48.768;9.154;2023-04-06T04:40:10;7.90;;;6.90;;
4837;SDS011;2433;48.768;9.154;2023-04-06T04:42:50;8.13;;;6.63;;
4837;SDS011;2433;48.768;9.154;2023-04-06T04:45:25;8.43;;;6.40;;
4837;SDS011;2433;48.768;9.154;2023-04-06T04:47:51;10.82;;;6.93;;
4837;SDS011;2433;48.768;9.154;2023-04-06T04:50:19;8.35;;;7.55;;
4837;SDS011;2433;48.768;9.154;2023-04-06T04:52:48;7.50;;;6.70;;
4837;SDS011;2433;48.768;9.154;2023-04-06T04:55:21;8.63;;;6.10;;
4837;SDS011;2433;48.768;9.154;2023-04-06T04:57:50;7.68;;;6.53;;
4837;SDS011;2433;48.768;9.154;2023-04-06T05:00:20;9.95;;;7.50;;
4837;SDS011;2433;48.768;9.154;2023-04-06T05:02:46;9.00;;;6.85;;
4837;SDS011;2433;48.768;9.154;2023-04-06T05:05:17;7.63;;;6.15;;
4837;SDS011;2433;48.768;9.154;2023-04-06T05:07:42;10.50;;;7.07;;
4837;SDS011;2433;48.768;9.154;2023-04-06T05:10:15;11.13;;;7.32;;
4837;SDS011;2433;48.768;9.154;2023-04-06T05:12:50;9.38;;;7.20;;
4837;SDS011;2433;48.768;9.154;2023-04-06T05:15:16;8.63;;;6.80;;
4837;SDS011;2433;48.768;9.154;2023-04-06T05:17:43;8.02;;;6.30;;
4837;SDS011;2433;48.768;9.154;2023-04-06T05:20:12;8.32;;;6.68;;
4837;SDS011;2433;48.768;9.154;2023-04-06T05:22:45;11.25;;;7.43;;
4837;SDS011;2433;48.768;9.154;2023-04-06T05:25:10;10.00;;;7.03;;
4837;SDS011;2433;48.768;9.154;2023-04-06T05:27:37;10.60;;;7.90;;
4837;SDS011;2433;48.768;9.154;2023-04-06T05:30:08;11.00;;;8.13;;
4837;SDS011;2433;48.768;9.154;2023-04-06T05:32:40;11.95;;;7.63;;
4837;SDS011;2433;48.768;9.154;2023-04-06T05:35:05;11.33;;;8.20;;
4837;SDS011;2433;48.768;9.154;2023-04-06T05:37:33;10.27;;;8.05;;
4837;SDS011;2433;48.768;9.154;2023-04-06T05:39:59;8.27;;;7.47;;
4837;SDS011;2433;48.768;9.154;2023-04-06T05:42:26;13.95;;;7.97;;
4837;SDS011;2433;48.768;9.154;2023-04-06T05:44:55;11.52;;;7.47;;
4837;SDS011;2433;48.768;9.154;2023-04-06T05:47:21;12.60;;;7.90;;
4837;SDS011;2433;48.768;9.154;2023-04-06T05:49:53;16.80;;;9.23;;
4837;SDS011;2433;48.768;9.154;2023-04-06T05:52:29;10.85;;;7.35;;
4837;SDS011;2433;48.768;9.154;2023-04-06T05:54:55;13.33;;;7.37;;
4837;SDS011;2433;48.768;9.154;2023-04-06T05:57:20;8.70;;;7.57;;
4837;SDS011;2433;48.768;9.154;2023-04-06T05:59:47;12.43;;;7.68;;
4837;SDS011;2433;48.768;9.154;2023-04-06T06:02:14;15.13;;;8.20;;
4837;SDS011;2433;48.768;9.154;2023-04-06T06:04:43;11.20;;;8.13;;
4837;SDS011;2433;48.768;9.154;2023-04-06T06:07:08;12.80;;;8.03;;
4837;SDS011;2433;48.768;9.154;2023-04-06T06:09:42;11.70;;;7.45;;
4837;SDS011;2433;48.768;9.154;2023-04-06T06:12:22;10.77;;;8.10;;
4837;SDS011;2433;48.768;9.154;2023-04-06T06:14:49;12.63;;;8.07;;
4837;SDS011;2433;48.768;9.154;2023-04-06T06:17:15;12.35;;;8.20;;
4837;SDS011;2433;48.768;9.154;2023-04-06T06:19:43;12.45;;;8.05;;
4837;SDS011;2433;48.768;9.154;2023-04-06T06:22:09;14.93;;;8.97;;
4837;SDS011;2433;48.768;9.154;2023-04-06T06:24:39;11.90;;;7.70;;
4837;SDS011;2433;48.768;9.154;2023-04-06T06:27:05;9.63;;;7.10;;
4837;SDS011;2433;48.768;9.154;2023-04-06T06:29:32;12.55;;;8.73;;
4837;SDS011;2433;48.768;9.154;2023-04-06T06:31:59;8.55;;;6.88;;
4837;SDS011;2433;48.768;9.154;2023-04-06T06:34:25;8.18;;;6.75;;
4837;SDS011;2433;48.768;9.154;2023-04-06T06:36:53;9.90;;;7.20;;
4837;SDS011;2433;48.768;9.154;2023-04-06T06:39:20;9.90;;;7.60;;
4837;SDS011;2433;48.768;9.154;2023-04-06T06:41:48;9.63;;;7.07;;
4837;SDS011;2433;48.768;9.154;2023-04-06T06:44:14;11.05;;;7.15;;
4837;SDS011;2433;48.768;9.154;2023-04-06T06:46:42;11.63;;;7.38;;
4837;SDS011;2433;48.768;9.154;2023-04-06T06:49:09;13.03;;;7.70;;
4837;SDS011;2433;48.768;9.154;2023-04-06T06:51:36;9.98;;;7.03;;
4837;SDS011;2433;48.768;9.154;2023-04-06T06:54:02;12.90;;;7.83;;
4837;SDS011;2433;48.768;9.154;2023-04-06T06:56:27;9.40;;;7.80;;
4837;SDS011;2433;48.768;9.154;2023-04-06T06:58:54;10.02;;;7.15;;
4837;SDS011;2433;48.768;9.154;2023-04-06T07:01:20;8.60;;;7.27;;
4837;SDS011;2433;48.768;9.154;2023-04-06T07:03:46;8.50;;;7.23;;
4837;SDS011;2433;48.768;9.154;2023-04-06T07:06:11;10.63;;;7.20;;
4837;SDS011;2433;48.768;9.154;2023-04-06T07:08:39;8.50;;;6.90;;
4837;SDS011;2433;48.768;9.154;2023-04-06T07:11:06;8.40;;;6.90;;
4837;SDS011;2433;48.768;9.154;2023-04-06T07:13:31;9.77;;;6.95;;
4837;SDS011;2433;48.768;9.154;2023-04-06T07:15:58;13.80;;;7.45;;
4837;SDS011;2433;48.768;9.154;2023-04-06T07:18:24;13.47;;;7.20;;
4837;SDS011;2433;48.768;9.154;2023-04-06T07:20:50;10.07;;;7.03;;
4837;SDS011;2433;48.768;9.154;2023-04-06T07:23:16;9.47;;;8.17;;
4837;SDS011;2433;48.768;9.154;2023-04-06T07:25:43;10.57;;;7.43;;
4837;SDS011;2433;48.768;9.154;2023-04-06T07:28:09;8.03;;;6.83;;
4837;SDS011;2433;48.768;9.154;2023-04-06T07:30:36;10.30;;;7.67;;
4837;SDS011;2433;48.768;9.154;2023-04-06T07:33:03;10.27;;;7.73;;
4837;SDS011;2433;48.768;9.154;2023-04-06T07:35:29;9.27;;;7.10;;
4837;SDS011;2433;48.768;9.154;2023-04-06T07:37:56;11.30;;;7.57;;
4837;SDS011;2433;48.768;9.154;2023-04-06T07:40:23;9.77;;;7.70;;
4837;SDS011;2433;48.768;9.154;2023-04-06T07:42:49;11.33;;;7.17;;
4837;SDS011;2433;48.768;9.154;2023-04-06T07:45:15;11.63;;;8.80;;
4837;SDS011;2433;48.768;9.154;2023-04-06T07:47:42;7.43;;;6.77;;
4837;SDS011;2433;48.768;9.154;2023-04-06T07:50:08;9.30;;;7.50;;
4837;SDS011;2433;48.768;9.154;2023-04-06T07:52:34;8.43;;;6.37;;
4837;SDS011;2433;48.768;9.154;2023-04-06T07:55:00;11.33;;;7.87;;
4837;SDS011;2433;48.768;9.154;2023-04-06T07:57:26;13.60;;;8.20;;
4837;SDS011;2433;48.768;9.154;2023-04-06T07:59:51;13.57;;;8.90;;
4837;SDS011;2433;48.768;9.154;2023-04-06T08:02:18;13.50;;;7.97;;
4837;SDS011;2433;48.768;9.154;2023-04-06T08:04:44;11.50;;;8.30;;
4837;SDS011;2433;48.768;9.154;2023-04-06T08:07:10;12.40;;;8.50;;
4837;SDS011;2433;48.768;9.154;2023-04-06T08:09:36;9.97;;;6.10;;
4837;SDS011;2433;48.768;9.154;2023-04-06T08:12:01;11.80;;;8.83;;
4837;SDS011;2433;48.768;9.154;2023-04-06T08:14:27;12.10;;;9.33;;
4837;SDS011;2433;48.768;9.154;2023-04-06T08:16:53;10.97;;;9.30;;
4837;SDS011;2433;48.768;9.154;2023-04-06T08:19:18;12.73;;;7.97;;
4837;SDS011;2433;48.768;9.154;2023-04-06T08:21:44;13.70;;;8.67;;
4837;SDS011;2433;48.768;9.154;2023-04-06T08:24:11;15.10;;;10.77;;
4837;SDS011;2433;48.768;9.154;2023-04-06T08:26:37;10.13;;;7.77;;
4837;SDS011;2433;48.768;9.154;2023-04-06T08:29:03;10.90;;;8.80;;
4837;SDS011;2433;48.768;9.154;2023-04-06T08:31:29;10.10;;;7.17;;
4837;SDS011;2433;48.768;9.154;2023-04-06T08:33:55;7.10;;;6.30;;
4837;SDS011;2433;48.768;9.154;2023-04-06T08:36:21;18.73;;;9.37;;
4837;SDS011;2433;48.768;9.154;2023-04-06T08:38:48;13.70;;;9.67;;
4837;SDS011;2433;48.768;9.154;2023-04-06T08:41:15;8.77;;;7.33;;
4837;SDS011;2433;48.768;9.154;2023-04-06T08:43:49;10.53;;;8.10;;
4837;SDS011;2433;48.768;9.154;2023-04-06T08:46:17;13.67;;;10.27;;
4837;SDS011;2433;48.768;9.154;2023-04-06T08:48:44;10.83;;;8.90;;
4837;SDS011;2433;48.768;9.154;2023-04-06T08:51:10;11.63;;;9.20;;
4837;SDS011;2433;48.768;9.154;2023-04-06T08:53:37;9.53;;;7.10;;
4837;SDS011;2433;48.768;9.154;2023-04-06T08:56:03;10.17;;;6.07;;
4837;SDS011;2433;48.768;9.154;2023-04-06T08:58:35;13.20;;;9.17;;
4837;SDS011;2433;48.768;9.154;2023-04-06T09:01:03;9.40;;;6.63;;
4837;SDS011;2433;48.768;9.154;2023-04-06T09:03:32;8.23;;;7.40;;
4837;SDS011;2433;48.768;9.154;2023-04-06T09:06:02;6.43;;;5.87;;
4837;SDS011;2433;48.768;9.154;2023-04-06T09:08:29;10.73;;;7.70;;
4837;SDS011;2433;48.768;9.154;2023-04-06T09:10:55;10.77;;;7.60;;
4837;SDS011;2433;48.768;9.154;2023-04-06T09:13:21;5.60;;;5.00;;
4837;SDS011;2433;48.768;9.154;2023-04-06T09:15:57;9.63;;;5.70;;
4837;SDS011;2433;48.768;9.154;2023-04-06T09:18:30;7.23;;;5.80;;
4837;SDS011;2433;48.768;9.154;2023-04-06T09:20:57;9.90;;;8.40;;
4837;SDS011;2433;48.768;9.154;2023-04-06T09:23:26;5.80;;;4.90;;
4837;SDS011;2433;48.768;9.154;2023-04-06T09:26:04;24.07;;;6.23;;
4837;SDS011;2433;48.768;9.154;2023-04-06T09:28:46;5.50;;;4.70;;
4837;SDS011;2433;48.768;9.154;2023-04-06T09:31:14;12.37;;;9.33;;
4837;SDS011;2433;48.768;9.154;2023-04-06T09:33:42;17.53;;;8.20;;
4837;SDS011;2433;48.768;9.154;2023-04-06T09:36:08;4.10;;;3.00;;
4837;SDS011;2433;48.768;9.154;2023-04-06T09:38:37;11.13;;;7.30;;
4837;SDS011;2433;48.768;9.154;2023-04-06T09:41:03;11.40;;;7.73;;
4837;SDS011;2433;48.768;9.154;2023-04-06T09:43:30;9.17;;;7.70;;
4837;SDS011;2433;48.768;9.154;2023-04-06T09:45:55;6.60;;;5.97;;
4837;SDS011;2433;48.768;9.154;2023-04-06T09:48:22;12.80;;;5.50;;
4837;SDS011;2433;48.768;9.154;2023-04-06T09:50:50;9.87;;;7.30;;
4837;SDS011;2433;48.768;9.154;2023-04-06T09:53:19;11.10;;;7.13;;
4837;SDS011;2433;48.768;9.154;2023-04-06T09:55:45;10.87;;;8.13;;
4837;SDS011;2433;48.768;9.154;2023-04-06T09:58:20;13.87;;;8.63;;
4837;SDS011;2433;48.768;9.154;2023-04-06T10:01:09;10.70;;;7.10;;
4837;SDS011;2433;48.768;9.154;2023-04-06T10:06:14;10.93;;;7.90;;
4837;SDS011;2433;48.768;9.154;2023-04-06T10:08:41;10.20;;;6.90;;
4837;SDS011;2433;48.768;9.154;2023-04-06T10:11:11;9.17;;;7.07;;
4837;SDS011;2433;48.768;9.154;2023-04-06T10:13:37;9.20;;;6.60;;
4837;SDS011;2433;48.768;9.154;2023-04-06T10:16:02;7.37;;;6.33;;
4837;SDS011;2433;48.768;9.154;2023-04-06T10:18:29;8.00;;;6.70;;
4837;SDS011;2433;48.768;9.154;2023-04-06T10:21:06;11.30;;;6.47;;
4837;SDS011;2433;48.768;9.154;2023-04-06T10:26:05;10.63;;;7.40;;
4837;SDS011;2433;48.768;9.154;2023-04-06T10:28:33;8.77;;;6.40;;
4837;SDS011;2433;48.768;9.154;2023-04-06T10:31:01;9.47;;;6.20;;
4837;SDS011;2433;48.768;9.154;2023-04-06T10:33:30;9.23;;;6.90;;
4837;SDS011;2433;48.768;9.154;2023-04-06T10:35:55;6.87;;;5.73;;
4837;SDS011;2433;48.768;9.154;2023-04-06T10:38:32;7.07;;;6.03;;
4837;SDS011;2433;48.768;9.154;2023-04-06T10:41:05;11.17;;;6.63;;
4837;SDS011;2433;48.768;9.154;2023-04-06T10:43:37;7.70;;;5.80;;
4837;SDS011;2433;48.768;9.154;2023-04-06T10:46:05;7.90;;;5.70;;
4837;SDS011;2433;48.768;9.154;2023-04-06T10:48:39;6.83;;;5.80;;
4837;SDS011;2433;48.768;9.154;2023-04-06T10:51:12;8.00;;;6.20;;
4837;SDS011;2433;48.768;9.154;2023-04-06T10:53:41;7.20;;;5.90;;
4837;SDS011;2433;48.768;9.154;2023-04-06T10:56:11;7.97;;;5.80;;
4837;SDS011;2433;48.768;9.154;2023-04-06T10:58:38;8.47;;;6.33;;
4837;SDS011;2433;48.768;9.154;2023-04-06T11:01:10;6.60;;;5.47;;
4837;SDS011;2433;48.768;9.154;2023-04-06T11:03:46;6.40;;;5.23;;
4837;SDS011;2433;48.768;9.154;2023-04-06T11:08:46;9.20;;;6.80;;
4837;SDS011;2433;48.768;9.154;2023-04-06T11:11:13;6.40;;;5.80;;
4837;SDS011;2433;48.768;9.154;2023-04-06T11:13:41;6.30;;;5.50;;
4837;SDS011;2433;48.768;9.154;2023-04-06T11:16:13;7.40;;;5.40;;
4837;SDS011;2433;48.768;9.154;2023-04-06T11:18:47;6.63;;;5.57;;
4837;SDS011;2433;48.768;9.154;2023-04-06T11:21:16;7.70;;;6.17;;
4837;SDS011;2433;48.768;9.154;2023-04-06T11:23:42;6.73;;;6.07;;
4837;SDS011;2433;48.768;9.154;2023-04-06T11:26:13;6.57;;;4.97;;
4837;SDS011;2433;48.768;9.154;2023-04-06T11:28:42;7.10;;;5.57;;
4837;SDS011;2433;48.768;9.154;2023-04-06T11:31:10;9.30;;;6.30;;
4837;SDS011;2433;48.768;9.154;2023-04-06T11:33:37;7.00;;;5.07;;
4837;SDS011;2433;48.768;9.154;2023-04-06T11:36:06;8.50;;;5.63;;
4837;SDS011;2433;48.768;9.154;2023-04-06T11:38:32;9.93;;;5.80;;
4837;SDS011;2433;48.768;9.154;2023-04-06T11:40:58;8.40;;;5.63;;
4837;SDS011;2433;48.768;9.154;2023-04-06T11:43:30;7.07;;;5.40;;
4837;SDS011;2433;48.768;9.154;2023-04-06T11:46:00;8.03;;;6.20;;
4837;SDS011;2433;48.768;9.154;2023-04-06T11:48:28;9.07;;;6.53;;
4837;SDS011;2433;48.768;9.154;2023-04-06T11:50:57;7.73;;;6.07;;
4837;SDS011;2433;48.768;9.154;2023-04-06T11:53:24;7.80;;;5.80;;
4837;SDS011;2433;48.768;9.154;2023-04-06T11:55:50;6.60;;;5.27;;
4837;SDS011;2433;48.768;9.154;2023-04-06T11:58:16;6.47;;;5.47;;
4837;SDS011;2433;48.768;9.154;2023-04-06T12:00:43;7.00;;;5.43;;
4837;SDS011;2433;48.768;9.154;2023-04-06T12:03:13;6.57;;;4.93;;
4837;SDS011;2433;48.768;9.154;2023-04-06T12:05:39;8.60;;;6.00;;
4837;SDS011;2433;48.768;9.154;2023-04-06T12:08:09;5.80;;;5.20;;
4837;SDS011;2433;48.768;9.154;2023-04-06T12:10:35;6.33;;;5.70;;
4837;SDS011;2433;48.768;9.154;2023-04-06T12:13:02;7.17;;;5.57;;
4837;SDS011;2433;48.768;9.154;2023-04-06T12:15:28;8.17;;;6.43;;
4837;SDS011;2433;48.768;9.154;2023-04-06T12:17:53;5.67;;;5.10;;
4837;SDS011;2433;48.768;9.154;2023-04-06T12:20:19;7.90;;;5.73;;
4837;SDS011;2433;48.768;9.154;2023-04-06T12:22:44;6.57;;;4.87;;
4837;SDS011;2433;48.768;9.154;2023-04-06T12:25:10;9.37;;;5.90;;
4837;SDS011;2433;48.768;9.154;2023-04-06T12:27:37;9.43;;;5.30;;
4837;SDS011;2433;48.768;9.154;2023-04-06T12:30:02;8.23;;;5.50;;
4837;SDS011;2433;48.768;9.154;2023-04-06T12:32:28;6.43;;;4.60;;
4837;SDS011;2433;48.768;9.154;2023-04-06T12:34:54;6.53;;;4.90;;
4837;SDS011;2433;48.768;9.154;2023-04-06T12:37:20;7.70;;;5.87;;
4837;SDS011;2433;48.768;9.154;2023-04-06T12:39:46;6.10;;;5.03;;
4837;SDS011;2433;48.768;9.154;2023-04-06T12:42:12;6.33;;;4.87;;
4837;SDS011;2433;48.768;9.154;2023-04-06T12:44:39;6.50;;;5.03;;
4837;SDS011;2433;48.768;9.154;2023-04-06T12:47:05;7.50;;;5.43;;
4837;SDS011;2433;48.768;9.154;2023-04-06T12:49:32;9.60;;;5.60;;
4837;SDS011;2433;48.768;9.154;2023-04-06T12:51:58;7.00;;;5.30;;
4837;SDS011;2433;48.768;9.154;2023-04-06T12:54:23;5.77;;;5.00;;
4837;SDS011;2433;48.768;9.154;2023-04-06T12:56:51;7.77;;;6.03;;
4837;SDS011;2433;48.768;9.154;2023-04-06T12:59:17;5.60;;;4.60;;
4837;SDS011;2433;48.768;9.154;2023-04-06T13:01:43;6.23;;;4.60;;
4837;SDS011;2433;48.768;9.154;2023-04-06T13:04:09;7.07;;;6.40;;
4837;SDS011;2433;48.768;9.154;2023-04-06T13:06:35;7.20;;;5.13;;
4837;SDS011;2433;48.768;9.154;2023-04-06T13:09:00;6.93;;;5.00;;
4837;SDS011;2433;48.768;9.154;2023-04-06T13:11:26;6.90;;;4.93;;
4837;SDS011;2433;48.768;9.154;2023-04-06T13:13:52;5.10;;;3.30;;
4837;SDS011;2433;48.768;9.154;2023-04-06T13:16:17;7.37;;;4.40;;
4837;SDS011;2433;48.768;9.154;2023-04-06T13:18:43;7.57;;;5.70;;
4837;SDS011;2433;48.768;9.154;2023-04-06T13:21:09;7.70;;;6.00;;
4837;SDS011;2433;48.768;9.154;2023-04-06T13:23:36;9.73;;;5.60;;
4837;SDS011;2433;48.768;9.154;2023-04-06T13:26:03;2.93;;;2.63;;
4837;SDS011;2433;48.768;9.154;2023-04-06T13:28:30;6.57;;;4.50;;
4837;SDS011;2433;48.768;9.154;2023-04-06T13:30:57;5.97;;;3.73;;
4837;SDS011;2433;48.768;9.154;2023-04-06T13:33:24;9.20;;;4.77;;
4837;SDS011;2433;48.768;9.154;2023-04-06T13:35:49;5.30;;;4.07;;
4837;SDS011;2433;48.768;9.154;2023-04-06T13:38:15;10.40;;;6.40;;
4837;SDS011;2433;48.768;9.154;2023-04-06T13:40:41;3.90;;;3.17;;
4837;SDS011;2433;48.768;9.154;2023-04-06T13:43:07;7.63;;;5.80;;
4837;SDS011;2433;48.768;9.154;2023-04-06T13:45:33;4.93;;;3.60;;
4837;SDS011;2433;48.768;9.154;2023-04-06T13:47:59;13.90;;;6.03;;
4837;SDS011;2433;48.768;9.154;2023-04-06T13:50:28;9.73;;;5.97;;
4837;SDS011;2433;48.768;9.154;2023-04-06T13:52:53;9.87;;;6.20;;
4837;SDS011;2433;48.768;9.154;2023-04-06T13:55:19;5.10;;;4.60;;
4837;SDS011;2433;48.768;9.154;2023-04-06T13:57:45;6.27;;;5.63;;
4837;SDS011;2433;48.768;9.154;2023-04-06T14:00:11;3.73;;;3.43;;
4837;SDS011;2433;48.768;9.154;2023-04-06T14:02:41;10.53;;;4.40;;
4837;SDS011;2433;48.768;9.154;2023-04-06T14:05:07;9.10;;;4.93;;
4837;SDS011;2433;48.768;9.154;2023-04-06T14:07:33;8.13;;;5.57;;
4837;SDS011;2433;48.768;9.154;2023-04-06T14:09:58;7.60;;;5.30;;
4837;SDS011;2433;48.768;9.154;2023-04-06T14:12:25;10.03;;;5.27;;
4837;SDS011;2433;48.768;9.154;2023-04-06T14:14:52;7.43;;;5.97;;
4837;SDS011;2433;48.768;9.154;2023-04-06T14:17:17;5.70;;;4.50;;
4837;SDS011;2433;48.768;9.154;2023-04-06T14:19:43;5.40;;;4.73;;
4837;SDS011;2433;48.768;9.154;2023-04-06T14:22:09;6.80;;;5.13;;
4837;SDS011;2433;48.768;9.154;2023-04-06T14:24:35;5.70;;;5.00;;
4837;SDS011;2433;48.768;9.154;2023-04-06T14:27:02;5.63;;;4.63;;
4837;SDS011;2433;48.768;9.154;2023-04-06T14:29:28;5.87;;;4.90;;
4837;SDS011;2433;48.768;9.154;2023-04-06T14:31:53;8.00;;;5.70;;
4837;SDS011;2433;48.768;9.154;2023-04-06T14:34:25;6.90;;;4.60;;
4837;SDS011;2433;48.768;9.154;2023-04-06T14:36:51;4.53;;;3.03;;
4837;SDS011;2433;48.768;9.154;2023-04-06T14:39:17;7.00;;;4.63;;
4837;SDS011;2433;48.768;9.154;2023-04-06T14:41:43;9.60;;;4.37;;
4837;SDS011;2433;48.768;9.154;2023-04-06T14:44:08;6.60;;;5.30;;
4837;SDS011;2433;48.768;9.154;2023-04-06T14:46:37;6.67;;;5.13;;
4837;SDS011;2433;48.768;9.154;2023-04-06T14:49:03;6.23;;;5.50;;
4837;SDS011;2433;48.768;9.154;2023-04-06T14:51:29;7.97;;;5.20;;
4837;SDS011;2433;48.768;9.154;2023-04-06T14:53:55;7.70;;;5.40;;
4837;SDS011;2433;48.768;9.154;2023-04-06T14:56:21;7.73;;;5.33;;
4837;SDS011;2433;48.768;9.154;2023-04-06T14:58:47;9.13;;;5.47;;
4837;SDS011;2433;48.768;9.154;2023-04-06T15:01:14;5.43;;;4.70;;
4837;SDS011;2433;48.768;9.154;2023-04-06T15:03:39;5.80;;;4.77;;
4837;SDS011;2433;48.768;9.154;2023-04-06T15:06:05;7.23;;;4.93;;
4837;SDS011;2433;48.768;9.154;2023-04-06T15:08:32;5.97;;;5.30;;
4837;SDS011;2433;48.768;9.154;2023-04-06T15:10:58;6.07;;;4.70;;
4837;SDS011;2433;48.768;9.154;2023-04-06T15:13:24;6.40;;;5.40;;
4837;SDS011;2433;48.768;9.154;2023-04-06T15:15:50;8.90;;;5.10;;
4837;SDS011;2433;48.768;9.154;2023-04-06T15:18:16;9.10;;;5.30;;
4837;SDS011;2433;48.768;9.154;2023-04-06T15:20:42;5.97;;;5.27;;
4837;SDS011;2433;48.768;9.154;2023-04-06T15:23:08;7.07;;;5.40;;